createdAt,value
2018-04-15T00:01:55.848Z,79.97
2018-04-15T00:04:23.436Z,76.67
2018-04-15T00:06:51.046Z,77.73
2018-04-15T00:09:18.613Z,80.30
2018-04-15T00:11:46.216Z,83.30
2018-04-15T00:14:13.943Z,78.93
2018-04-15T00:16:41.550Z,85.87
2018-04-15T00:19:09.125Z,88.30
2018-04-15T00:21:36.690Z,82.20
2018-04-15T00:24:04.256Z,83.23
2018-04-15T00:26:31.824Z,86.53
2018-04-15T00:28:59.402Z,79.80
2018-04-15T00:31:26.986Z,75.10
2018-04-15T00:33:54.591Z,77.27
2018-04-15T00:36:22.129Z,84.93
2018-04-15T00:38:49.690Z,83.63
2018-04-15T00:41:17.241Z,83.37
2018-04-15T00:43:44.819Z,86.13
2018-04-15T00:46:12.415Z,85.43
2018-04-15T00:48:40.042Z,82.73
2018-04-15T00:51:07.593Z,84.90
2018-04-15T00:53:46.937Z,90.40
2018-04-15T00:56:14.503Z,89.30
2018-04-15T00:58:42.049Z,87.77
2018-04-15T01:01:09.627Z,86.23
2018-04-15T01:03:37.216Z,81.33
2018-04-15T01:06:04.793Z,93.10
2018-04-15T01:08:32.360Z,87.73
2018-04-15T01:10:59.923Z,87.70
2018-04-15T01:13:27.597Z,88.17
2018-04-15T01:15:55.141Z,85.90
2018-04-15T01:18:22.759Z,86.33
2018-04-15T01:20:50.337Z,85.80
2018-04-15T01:23:17.888Z,88.23
2018-04-15T01:25:45.432Z,81.53
2018-04-15T01:28:13.004Z,79.03
2018-04-15T01:30:40.581Z,84.40
2018-04-15T01:33:08.145Z,81.80
2018-04-15T01:35:35.717Z,81.73
2018-04-15T01:38:03.289Z,88.03
2018-04-15T01:40:30.897Z,92.37
2018-04-15T01:42:58.462Z,83.03
2018-04-15T01:45:26.028Z,81.00
2018-04-15T01:47:53.712Z,85.57
2018-04-15T01:50:21.292Z,82.93
2018-04-15T01:52:48.878Z,87.23
2018-04-15T01:55:16.488Z,93.13
2018-04-15T01:57:44.104Z,87.17
2018-04-15T02:00:11.681Z,85.73
2018-04-15T02:02:39.242Z,89.00
2018-04-15T02:05:06.809Z,83.17
2018-04-15T02:07:34.370Z,90.93
2018-04-15T02:10:01.966Z,82.03
2018-04-15T02:12:29.529Z,79.03
2018-04-15T02:14:57.095Z,80.53
2018-04-15T02:17:24.666Z,82.40
2018-04-15T02:19:52.208Z,83.70
2018-04-15T02:22:19.768Z,87.47
2018-04-15T02:24:47.365Z,86.90
2018-04-15T02:27:14.918Z,86.53
2018-04-15T02:29:42.511Z,87.47
2018-04-15T02:32:10.097Z,90.87
2018-04-15T02:34:37.696Z,85.73
2018-04-15T02:37:05.259Z,91.23
2018-04-15T02:39:32.844Z,80.63
2018-04-15T02:42:00.436Z,89.70
2018-04-15T02:44:27.993Z,87.17
2018-04-15T02:46:55.561Z,92.70
2018-04-15T02:49:23.171Z,87.40
2018-04-15T02:51:50.774Z,85.30
2018-04-15T02:54:18.429Z,88.83
2018-04-15T02:56:46.013Z,91.93
2018-04-15T02:59:13.609Z,82.07
2018-04-15T03:01:41.173Z,89.47
2018-04-15T03:04:08.731Z,83.97
2018-04-15T03:06:36.290Z,82.30
2018-04-15T03:09:03.849Z,90.27
2018-04-15T03:11:31.434Z,85.90
2018-04-15T03:13:58.973Z,84.67
2018-04-15T03:16:26.580Z,82.80
2018-04-15T03:18:54.155Z,92.70
2018-04-15T03:21:21.817Z,90.40
2018-04-15T03:23:49.381Z,89.30
2018-04-15T03:26:16.954Z,92.70
2018-04-15T03:28:44.544Z,84.97
2018-04-15T03:31:12.158Z,89.87
2018-04-15T03:33:39.756Z,86.60
2018-04-15T03:36:07.405Z,92.83
2018-04-15T03:38:35.016Z,91.53
2018-04-15T03:41:02.581Z,88.33
2018-04-15T03:43:30.149Z,85.17
2018-04-15T03:45:57.690Z,93.87
2018-04-15T03:48:25.263Z,93.93
2018-04-15T03:50:52.838Z,97.23
2018-04-15T03:53:20.392Z,83.23
2018-04-15T03:55:47.973Z,86.40
2018-04-15T03:58:15.536Z,86.83
2018-04-15T04:00:43.121Z,82.73
2018-04-15T04:03:10.742Z,89.67
2018-04-15T04:05:38.374Z,89.63
2018-04-15T04:08:05.958Z,81.57
2018-04-15T04:10:33.542Z,91.50
2018-04-15T04:13:01.166Z,91.03
2018-04-15T04:15:28.927Z,94.83
2018-04-15T04:18:08.510Z,92.00
2018-04-15T04:20:47.704Z,90.20
2018-04-15T04:23:27.093Z,82.93
2018-04-15T04:26:05.535Z,90.97
2018-04-15T04:28:33.944Z,89.10
2018-04-15T04:31:01.494Z,91.13
2018-04-15T04:33:29.040Z,90.27
2018-04-15T04:35:56.688Z,88.17
2018-04-15T04:38:24.241Z,85.87
2018-04-15T04:40:51.781Z,85.13
2018-04-15T04:43:19.332Z,88.50
2018-04-15T04:45:46.903Z,87.30
2018-04-15T04:48:14.537Z,93.40
2018-04-15T04:50:42.197Z,88.57
2018-04-15T04:53:09.790Z,91.53
2018-04-15T04:55:37.439Z,93.20
2018-04-15T04:58:05.070Z,92.40
2018-04-15T05:00:32.652Z,89.43
2018-04-15T05:03:00.228Z,89.17
2018-04-15T05:05:27.819Z,92.03
2018-04-15T05:07:55.392Z,89.73
2018-04-15T05:10:22.951Z,90.83
2018-04-15T05:12:50.602Z,85.83
2018-04-15T05:15:18.248Z,87.80
2018-04-15T05:17:45.896Z,92.40
2018-04-15T05:20:13.538Z,89.60
2018-04-15T05:22:41.118Z,87.80
2018-04-15T05:25:09.154Z,82.03
2018-04-15T05:27:36.804Z,81.33
2018-04-15T05:33:02.495Z,85.83
2018-04-15T05:35:30.055Z,79.60
2018-04-15T05:37:57.677Z,87.17
2018-04-15T05:40:25.341Z,85.47
2018-04-15T05:42:53.136Z,83.70
2018-04-15T05:45:20.816Z,80.07
2018-04-15T05:47:48.501Z,85.57
2018-04-15T05:50:16.144Z,79.30
2018-04-15T05:52:43.771Z,82.30
2018-04-15T05:55:11.362Z,78.20
2018-04-15T05:57:38.948Z,78.40
2018-04-15T06:00:06.541Z,81.07
2018-04-15T06:02:34.129Z,79.53
2018-04-15T06:05:01.693Z,81.93
2018-04-15T06:07:29.264Z,74.07
2018-04-15T06:09:56.846Z,86.27
2018-04-15T06:12:24.512Z,81.90
2018-04-15T06:14:52.186Z,80.83
2018-04-15T06:17:19.772Z,75.10
2018-04-15T06:19:47.348Z,78.27
2018-04-15T06:22:14.927Z,81.27
2018-04-15T06:24:42.568Z,74.77
2018-04-15T06:27:10.187Z,83.00
2018-04-15T06:29:37.759Z,72.77
2018-04-15T06:32:05.429Z,80.83
2018-04-15T06:34:33.028Z,77.70
2018-04-15T06:37:00.566Z,76.93
2018-04-15T06:39:29.874Z,79.93
2018-04-15T06:41:57.648Z,82.20
2018-04-15T06:44:25.265Z,78.13
2018-04-15T06:46:52.839Z,79.07
2018-04-15T06:49:20.488Z,72.63
2018-04-15T06:51:48.060Z,76.43
2018-04-15T06:54:15.612Z,75.43
2018-04-15T06:56:43.164Z,81.27
2018-04-15T06:59:10.751Z,69.07
2018-04-15T07:01:38.421Z,77.70
2018-04-15T07:04:06.325Z,74.43
2018-04-15T07:06:34.026Z,73.60
2018-04-15T07:09:01.610Z,67.67
2018-04-15T07:11:29.201Z,73.27
2018-04-15T07:13:56.784Z,75.90
2018-04-15T07:16:24.366Z,71.23
2018-04-15T07:18:51.956Z,70.47
2018-04-15T07:21:19.552Z,74.43
2018-04-15T07:23:47.125Z,71.37
2018-04-15T07:26:14.680Z,71.33
2018-04-15T07:28:42.233Z,71.87
2018-04-15T07:31:09.800Z,71.90
2018-04-15T07:33:37.372Z,73.87
2018-04-15T07:36:04.986Z,76.10
2018-04-15T07:38:32.572Z,74.27
2018-04-15T07:41:00.222Z,74.10
2018-04-15T07:43:28.559Z,72.07
2018-04-15T07:45:56.150Z,71.07
2018-04-15T07:48:23.741Z,74.40
2018-04-15T07:50:51.344Z,74.50
2018-04-15T07:53:18.898Z,67.03
2018-04-15T07:55:46.442Z,72.00
2018-04-15T07:58:14.048Z,66.80
2018-04-15T08:00:41.680Z,70.17
2018-04-15T08:03:09.267Z,70.47
2018-04-15T08:05:36.885Z,69.27
2018-04-15T08:08:04.540Z,67.30
2018-04-15T08:10:32.092Z,69.23
2018-04-15T08:12:59.678Z,73.77
2018-04-15T08:15:27.456Z,68.53
2018-04-15T08:17:55.088Z,68.00
2018-04-15T08:20:22.966Z,72.20
2018-04-15T08:22:50.575Z,68.17
2018-04-15T08:25:18.141Z,69.87
2018-04-15T08:27:45.939Z,70.40
2018-04-15T08:30:13.528Z,74.03
2018-04-15T08:32:41.147Z,77.40
2018-04-15T08:35:08.760Z,70.47
2018-04-15T08:37:36.409Z,75.33
2018-04-15T08:40:04.052Z,67.53
2018-04-15T08:42:31.635Z,65.77
2018-04-15T08:44:59.294Z,66.93
2018-04-15T08:47:26.918Z,74.20
2018-04-15T08:49:54.478Z,71.50
2018-04-15T08:52:22.062Z,73.67
2018-04-15T08:54:49.650Z,75.67
2018-04-15T08:57:17.366Z,69.87
2018-04-15T08:59:44.993Z,72.67
2018-04-15T09:02:12.615Z,74.13
2018-04-15T09:04:40.220Z,70.47
2018-04-15T09:07:08.064Z,73.13
2018-04-15T09:09:35.838Z,73.47
2018-04-15T09:12:03.462Z,76.47
2018-04-15T09:14:31.021Z,78.83
2018-04-15T09:16:58.621Z,71.80
2018-04-15T09:19:26.235Z,72.70
2018-04-15T09:21:53.991Z,66.30
2018-04-15T09:24:21.601Z,84.00
2018-04-15T09:26:49.162Z,76.30
2018-04-15T09:29:16.787Z,79.20
2018-04-15T09:31:44.416Z,73.43
2018-04-15T09:34:11.995Z,71.67
2018-04-15T09:36:39.688Z,72.20
2018-04-15T09:39:07.300Z,73.10
2018-04-15T09:41:34.959Z,71.67
2018-04-15T09:44:02.727Z,77.90
2018-04-15T09:46:30.302Z,82.47
2018-04-15T09:48:57.873Z,77.53
2018-04-15T09:51:25.480Z,73.40
2018-04-15T09:53:53.064Z,70.40
2018-04-15T09:56:20.672Z,72.63
2018-04-15T09:58:48.260Z,71.90
2018-04-15T10:01:16.765Z,76.70
2018-04-15T10:03:44.322Z,79.03
2018-04-15T10:06:11.903Z,82.33
2018-04-15T10:08:39.469Z,81.73
2018-04-15T10:11:07.200Z,76.47
2018-04-15T10:13:35.177Z,83.13
2018-04-15T10:16:02.762Z,85.67
2018-04-15T10:18:30.318Z,70.70
2018-04-15T10:20:57.936Z,80.00
2018-04-15T10:23:25.515Z,84.10
2018-04-15T10:25:53.467Z,76.80
2018-04-15T10:28:21.059Z,82.00
2018-04-15T10:30:48.612Z,77.77
2018-04-15T10:33:16.204Z,78.67
2018-04-15T10:35:43.789Z,85.23
2018-04-15T10:38:11.664Z,82.73
2018-04-15T10:40:39.352Z,86.23
2018-04-15T10:43:06.933Z,73.87
2018-04-15T10:45:34.514Z,76.33
2018-04-15T10:48:02.095Z,78.70
2018-04-15T10:50:29.696Z,74.90
2018-04-15T10:52:57.288Z,72.13
2018-04-15T10:55:24.885Z,73.37
2018-04-15T10:57:52.583Z,76.67
2018-04-15T11:00:20.314Z,73.00
2018-04-15T11:02:47.946Z,68.87
2018-04-15T11:05:15.529Z,71.60
2018-04-15T11:07:43.088Z,72.93
2018-04-15T11:10:10.679Z,67.50
2018-04-15T11:12:38.375Z,70.77
2018-04-15T11:15:05.946Z,69.37
2018-04-15T11:17:33.535Z,70.90
2018-04-15T11:20:01.226Z,62.17
2018-04-15T11:22:28.802Z,66.63
2018-04-15T11:24:56.640Z,63.47
2018-04-15T11:27:24.333Z,66.63
2018-04-15T11:29:51.913Z,66.67
2018-04-15T11:32:19.612Z,65.30
2018-04-15T11:34:47.194Z,70.53
2018-04-15T11:37:14.817Z,60.30
2018-04-15T11:39:42.380Z,57.03
2018-04-15T11:42:09.933Z,59.67
2018-04-15T11:44:37.534Z,54.53
2018-04-15T11:47:05.122Z,59.10
2018-04-15T11:49:32.709Z,52.83
2018-04-15T11:52:00.614Z,54.63
2018-04-15T11:54:28.283Z,48.53
2018-04-15T11:56:55.876Z,45.30
2018-04-15T11:59:23.503Z,39.00
2018-04-15T12:01:51.111Z,43.80
2018-04-15T12:04:18.676Z,43.57
2018-04-15T12:06:46.237Z,43.17
2018-04-15T12:09:13.812Z,39.10
2018-04-15T12:11:41.380Z,46.73
2018-04-15T12:14:09.082Z,36.27
2018-04-15T12:16:36.665Z,34.47
2018-04-15T12:19:04.497Z,38.10
2018-04-15T12:21:32.273Z,39.70
2018-04-15T12:23:59.867Z,41.90
2018-04-15T12:26:27.449Z,39.60
2018-04-15T12:28:55.019Z,38.60
2018-04-15T12:31:22.588Z,38.00
2018-04-15T12:33:50.252Z,36.37
2018-04-15T12:36:17.830Z,40.17
2018-04-15T12:38:45.402Z,38.83
2018-04-15T12:41:12.969Z,38.10
2018-04-15T12:43:40.607Z,38.60
2018-04-15T12:46:08.268Z,35.07
2018-04-15T12:48:35.917Z,34.37
2018-04-15T12:51:03.577Z,32.03
2018-04-15T12:53:31.189Z,36.80
2018-04-15T12:55:58.800Z,36.47
2018-04-15T12:58:26.386Z,32.77
2018-04-15T13:00:54.134Z,35.23
2018-04-15T13:03:21.754Z,35.47
2018-04-15T13:05:49.361Z,30.40
2018-04-15T13:08:17.086Z,32.40
2018-04-15T13:10:44.715Z,31.60
2018-04-15T13:13:12.498Z,33.10
2018-04-15T13:15:40.374Z,35.80
2018-04-15T13:18:07.989Z,33.17
2018-04-15T13:20:35.898Z,26.43
2018-04-15T13:23:04.673Z,28.37
2018-04-15T13:25:32.297Z,29.93
2018-04-15T13:28:00.421Z,23.67
2018-04-15T13:30:28.227Z,27.07
2018-04-15T13:32:56.085Z,24.03
2018-04-15T13:35:23.735Z,21.13
2018-04-15T13:37:51.418Z,21.03
2018-04-15T13:40:19.005Z,25.63
2018-04-15T13:42:46.570Z,20.83
2018-04-15T13:45:14.149Z,23.67
2018-04-15T13:47:41.759Z,32.30
2018-04-15T13:50:09.336Z,23.47
2018-04-15T13:52:36.922Z,22.80
2018-04-15T13:55:04.878Z,26.43
2018-04-15T13:57:32.447Z,23.80
2018-04-15T14:00:00.128Z,22.23
2018-04-15T14:02:27.717Z,24.60
2018-04-15T14:04:55.379Z,21.67
2018-04-15T14:07:22.933Z,22.83
2018-04-15T14:09:50.971Z,24.53
2018-04-15T14:12:18.983Z,25.60
2018-04-15T14:14:46.588Z,24.80
2018-04-15T14:17:14.510Z,22.43
2018-04-15T14:19:42.084Z,23.10
2018-04-15T14:22:09.677Z,25.80
2018-04-15T14:24:37.286Z,25.00
2018-04-15T14:27:04.847Z,21.70
2018-04-15T14:29:32.399Z,21.73
2018-04-15T14:32:00.151Z,23.43
2018-04-15T14:34:27.770Z,24.67
2018-04-15T14:36:55.329Z,26.13
2018-04-15T14:39:23.060Z,22.67
2018-04-15T14:41:50.645Z,26.30
2018-04-15T14:44:18.214Z,25.13
2018-04-15T14:46:45.807Z,27.37
2018-04-15T14:49:13.361Z,26.53
2018-04-15T14:51:40.933Z,27.73
2018-04-15T14:54:08.522Z,23.43
2018-04-15T14:56:36.099Z,25.17
2018-04-15T14:59:03.747Z,26.47
2018-04-15T15:01:31.487Z,25.30
2018-04-15T15:03:59.267Z,22.57
2018-04-15T15:06:26.824Z,27.33
2018-04-15T15:08:54.444Z,25.30
2018-04-15T15:11:22.297Z,24.10
2018-04-15T15:13:49.904Z,26.10
2018-04-15T15:16:17.512Z,25.93
2018-04-15T15:18:45.276Z,22.83
2018-04-15T15:21:12.890Z,24.57
2018-04-15T15:23:40.570Z,25.20
2018-04-15T15:26:08.210Z,22.73
2018-04-15T15:28:35.771Z,27.53
2018-04-15T15:31:04.046Z,25.23
2018-04-15T15:33:31.610Z,24.60
2018-04-15T15:35:59.201Z,22.83
2018-04-15T15:38:26.785Z,23.23
2018-04-15T15:40:54.341Z,28.03
2018-04-15T15:43:21.930Z,23.60
2018-04-15T15:45:49.580Z,24.37
2018-04-15T15:48:17.242Z,23.57
2018-04-15T15:50:44.831Z,22.90
2018-04-15T15:53:12.465Z,22.63
2018-04-15T15:55:40.199Z,25.30
2018-04-15T15:58:07.813Z,21.23
2018-04-15T16:00:35.434Z,20.40
2018-04-15T16:03:02.987Z,23.27
2018-04-15T16:05:30.542Z,21.80
2018-04-15T16:07:58.094Z,18.60
2018-04-15T16:10:25.685Z,20.40
2018-04-15T16:12:53.281Z,19.13
2018-04-15T16:15:20.850Z,18.47
2018-04-15T16:17:48.530Z,20.53
2018-04-15T16:20:16.159Z,19.27
2018-04-15T16:22:43.813Z,20.73
2018-04-15T16:25:11.523Z,25.60
2018-04-15T16:27:39.260Z,21.50
2018-04-15T16:30:07.036Z,22.10
2018-04-15T16:32:34.616Z,22.27
2018-04-15T16:35:02.166Z,20.73
2018-04-15T16:37:29.825Z,20.80
2018-04-15T16:39:58.141Z,24.73
2018-04-15T16:42:25.988Z,26.90
2018-04-15T16:44:53.572Z,22.57
2018-04-15T16:47:21.130Z,30.47
2018-04-15T16:49:48.705Z,20.90
2018-04-15T16:52:16.305Z,19.50
2018-04-15T16:54:43.969Z,18.20
2018-04-15T16:57:11.579Z,18.93
2018-04-15T16:59:39.146Z,20.07
2018-04-15T17:02:06.753Z,18.97
2018-04-15T17:04:34.325Z,17.30
2018-04-15T17:07:01.989Z,20.60
2018-04-15T17:09:29.556Z,18.47
2018-04-15T17:11:57.154Z,17.20
2018-04-15T17:14:24.814Z,20.23
2018-04-15T17:16:52.524Z,18.67
2018-04-15T17:19:20.552Z,20.67
2018-04-15T17:21:48.118Z,20.43
2018-04-15T17:24:15.679Z,19.13
2018-04-15T17:26:43.495Z,19.50
2018-04-15T17:29:11.509Z,22.03
2018-04-15T17:31:39.089Z,18.97
2018-04-15T17:34:06.662Z,18.73
2018-04-15T17:36:34.282Z,20.47
2018-04-15T17:39:01.887Z,22.97
2018-04-15T17:41:29.605Z,20.87
2018-04-15T17:43:57.175Z,22.37
2018-04-15T17:46:24.990Z,17.93
2018-04-15T17:48:52.863Z,18.67
2018-04-15T17:51:20.824Z,19.20
2018-04-15T17:53:48.373Z,23.20
2018-04-15T17:56:16.395Z,18.90
2018-04-15T17:58:44.021Z,25.23
2018-04-15T18:01:14.913Z,18.43
2018-04-15T18:03:42.729Z,17.83
2018-04-15T18:06:10.523Z,22.37
2018-04-15T18:08:38.147Z,19.23
2018-04-15T18:11:05.987Z,17.77
2018-04-15T18:13:33.620Z,22.70
2018-04-15T18:16:01.220Z,18.37
2018-04-15T18:18:28.938Z,20.13
2018-04-15T18:20:56.943Z,22.30
2018-04-15T18:23:24.591Z,22.83
2018-04-15T18:25:52.214Z,20.70
2018-04-15T18:28:20.102Z,20.83
2018-04-15T18:30:47.696Z,20.67
2018-04-15T18:33:15.281Z,17.53
2018-04-15T18:35:42.879Z,23.40
2018-04-15T18:38:10.537Z,22.07
2018-04-15T18:40:38.113Z,19.43
2018-04-15T18:43:05.765Z,23.13
2018-04-15T18:45:33.379Z,20.20
2018-04-15T18:48:02.851Z,23.70
2018-04-15T18:50:30.437Z,22.37
2018-04-15T18:52:58.012Z,20.20
2018-04-15T18:55:25.812Z,21.23
2018-04-15T18:57:53.596Z,22.17
2018-04-15T19:00:21.139Z,20.27
2018-04-15T19:02:50.111Z,21.47
2018-04-15T19:05:18.085Z,21.83
2018-04-15T19:07:45.671Z,21.07
2018-04-15T19:10:13.301Z,22.53
2018-04-15T19:12:40.865Z,22.83
2018-04-15T19:15:08.427Z,21.47
2018-04-15T19:17:36.236Z,22.93
2018-04-15T19:20:04.057Z,23.53
2018-04-15T19:22:31.604Z,22.13
2018-04-15T19:24:59.174Z,21.47
2018-04-15T19:27:26.752Z,26.80
2018-04-15T19:29:54.342Z,25.30
2018-04-15T19:32:22.305Z,27.70
2018-04-15T19:34:51.105Z,24.50
2018-04-15T19:37:18.815Z,28.47
2018-04-15T19:39:46.740Z,27.03
2018-04-15T19:42:14.902Z,27.10
2018-04-15T19:44:42.509Z,25.30
2018-04-15T19:47:10.069Z,26.17
2018-04-15T19:49:37.635Z,27.77
2018-04-15T19:52:05.215Z,24.60
2018-04-15T19:54:32.849Z,26.20
2018-04-15T19:57:00.399Z,25.33
2018-04-15T19:59:28.035Z,26.47
2018-04-15T20:01:55.643Z,29.47
2018-04-15T20:04:23.216Z,31.10
2018-04-15T20:06:50.785Z,26.77
2018-04-15T20:09:18.373Z,28.60
2018-04-15T20:11:46.103Z,30.63
2018-04-15T20:14:13.712Z,26.27
2018-04-15T20:16:41.422Z,29.30
2018-04-15T20:19:09.026Z,30.13
2018-04-15T20:21:36.683Z,30.30
2018-04-15T20:24:05.255Z,30.20
2018-04-15T20:26:32.827Z,29.37
2018-04-15T20:29:00.413Z,29.60
2018-04-15T20:31:28.042Z,31.60
2018-04-15T20:33:55.606Z,30.37
2018-04-15T20:36:23.163Z,34.23
2018-04-15T20:38:50.780Z,34.00
2018-04-15T20:41:18.414Z,35.60
2018-04-15T20:43:45.946Z,35.17
2018-04-15T20:46:14.253Z,29.90
2018-04-15T20:48:41.915Z,34.93
2018-04-15T20:51:09.551Z,33.50
2018-04-15T20:53:37.189Z,33.03
2018-04-15T20:56:04.771Z,32.40
2018-04-15T20:58:32.540Z,31.37
2018-04-15T21:01:00.168Z,36.70
2018-04-15T21:03:27.761Z,36.93
2018-04-15T21:05:55.323Z,35.60
2018-04-15T21:08:22.905Z,36.50
2018-04-15T21:10:50.540Z,39.73
2018-04-15T21:13:18.133Z,36.13
2018-04-15T21:15:45.721Z,39.53
2018-04-15T21:18:13.314Z,40.57
2018-04-15T21:20:41.311Z,41.47
2018-04-15T21:23:08.876Z,39.93
2018-04-15T21:25:36.450Z,39.00
2018-04-15T21:28:04.096Z,40.03
2018-04-15T21:30:31.788Z,43.43
2018-04-15T21:32:59.385Z,40.03
2018-04-15T21:35:27.001Z,39.60
2018-04-15T21:37:55.177Z,44.30
2018-04-15T21:40:22.752Z,45.40
2018-04-15T21:42:50.374Z,41.97
2018-04-15T21:45:17.989Z,42.47
2018-04-15T21:47:45.698Z,42.30
2018-04-15T21:50:13.272Z,41.20
2018-04-15T21:52:40.893Z,40.97
2018-04-15T21:55:08.533Z,40.87
2018-04-15T21:57:36.115Z,43.87
2018-04-15T22:00:03.838Z,43.50
2018-04-15T22:02:31.622Z,46.13
2018-04-15T22:04:59.238Z,43.00
2018-04-15T22:07:26.824Z,47.33
2018-04-15T22:09:54.385Z,46.27
2018-04-15T22:12:21.999Z,50.57
2018-04-15T22:14:49.582Z,44.10
2018-04-15T22:19:50.945Z,44.60
2018-04-15T22:22:18.535Z,42.47
2018-04-15T22:24:46.078Z,42.87
2018-04-15T22:27:13.629Z,47.57
2018-04-15T22:29:41.259Z,42.93
2018-04-15T22:32:08.868Z,40.60
2018-04-15T22:34:36.408Z,46.17
2018-04-15T22:37:04.005Z,43.07
2018-04-15T22:39:31.570Z,45.40
2018-04-15T22:41:59.164Z,43.17
2018-04-15T22:44:26.791Z,45.20
2018-04-15T22:46:54.350Z,42.47
2018-04-15T22:49:22.286Z,44.90
2018-04-15T22:51:49.916Z,44.60
2018-04-15T22:54:17.513Z,49.37
2018-04-15T22:56:45.163Z,42.37
2018-04-15T22:59:12.734Z,42.40
2018-04-15T23:01:40.458Z,42.73
2018-04-15T23:04:08.043Z,40.10
2018-04-15T23:06:35.608Z,40.83
2018-04-15T23:09:03.193Z,38.73
2018-04-15T23:11:30.766Z,39.20
2018-04-15T23:13:58.331Z,47.70
2018-04-15T23:16:25.912Z,38.70
2018-04-15T23:18:53.473Z,40.20
2018-04-15T23:21:21.030Z,39.87
2018-04-15T23:23:48.610Z,43.63
2018-04-15T23:26:17.070Z,42.40
2018-04-15T23:28:44.682Z,43.20
2018-04-15T23:31:12.293Z,43.33
2018-04-15T23:33:39.846Z,42.33
2018-04-15T23:36:07.408Z,39.90
2018-04-15T23:38:34.971Z,41.73
2018-04-15T23:41:02.553Z,39.70
2018-04-15T23:43:30.156Z,38.80
2018-04-15T23:45:57.749Z,38.87
2018-04-15T23:48:25.307Z,43.00
2018-04-15T23:50:52.870Z,44.90
2018-04-15T23:53:20.448Z,39.37
2018-04-15T23:55:48.020Z,37.23
2018-04-15T23:58:15.618Z,38.57
